Time;durP1;ratioP1;P1;durP2;ratioP2;P2;SDS_P1;SDS_P2;PMS_P1;PMS_P2;Temp;Humidity;BMP_temperature;BMP_pressure;BME280_temperature;BME280_humidity;BME280_pressure;Samples;Min_cycle;Max_cycle;Signal;HPM_P1;HPM_P2
2022/04/27 00:02:23;;;;;;;3.22;2.83;;;;;;;17.25;70.31;101348.56;5052980;28;20028;-80
2022/04/27 00:04:49;;;;;;;2.75;2.50;;;;;;;17.27;70.09;101352.16;5052721;28;20029;-78
2022/04/27 00:07:15;;;;;;;3.33;2.58;;;;;;;17.23;70.20;101356.47;5035088;28;20424;-81
2022/04/27 00:09:40;;;;;;;3.58;2.60;;;;;;;17.26;70.14;101358.31;5052991;28;20029;-81
2022/04/27 00:12:07;;;;;;;3.03;2.60;;;;;;;17.22;70.30;101338.81;5053016;28;20032;-81
2022/04/27 00:14:32;;;;;;;;;;;;;;;17.28;70.33;101349.59;5053310;28;20028;-81
2022/04/27 00:16:58;;;;;;;2.75;2.53;;;;;;;17.25;70.19;101346.84;5052580;28;19919;-81
2022/04/27 00:19:25;;;;;;;4.13;2.70;;;;;;;17.25;70.35;101345.94;5035803;28;20029;-80
2022/04/27 00:21:50;;;;;;;2.88;2.47;;;;;;;17.25;70.30;101343.28;5053465;28;20097;-80
2022/04/27 00:24:17;;;;;;;2.90;2.60;;;;;;;17.24;70.39;101344.16;5053167;28;20021;-80
2022/04/27 00:26:43;;;;;;;3.38;2.53;;;;;;;17.25;70.26;101352.13;5048528;28;20258;-80
2022/04/27 00:29:09;;;;;;;3.33;2.75;;;;;;;17.20;70.39;101342.25;5015500;28;20462;-80
2022/04/27 00:31:34;;;;;;;3.10;2.63;;;;;;;17.22;70.44;101336.16;5015412;28;20036;-80
2022/04/27 00:34:00;;;;;;;3.60;2.30;;;;;;;17.26;70.33;101350.38;5043064;28;20025;-80
2022/04/27 00:36:27;;;;;;;2.33;2.15;;;;;;;17.26;70.42;101351.28;5053246;28;20505;-80
2022/04/27 00:38:53;;;;;;;2.72;2.47;;;;;;;17.26;70.55;101353.91;5035287;28;20085;-79
2022/04/27 00:41:19;;;;;;;3.80;2.50;;;;;;;17.24;70.44;101342.41;5053027;28;20033;-80
2022/04/27 00:43:45;;;;;;;2.78;2.58;;;;;;;17.12;70.48;101326.13;5052677;28;20033;-80
2022/04/27 00:46:11;;;;;;;4.05;2.38;;;;;;;17.25;70.52;101352.13;5052304;28;20102;-81
2022/04/27 00:48:39;;;;;;;;;;;;;;;17.29;70.43;101347.84;5053177;28;20033;-80
2022/04/27 00:51:05;;;;;;;2.53;2.33;;;;;;;17.27;70.38;101352.16;5052991;28;19913;-80
2022/04/27 00:53:31;;;;;;;2.63;2.42;;;;;;;17.22;70.43;101352.00;5052611;28;20598;-80
2022/04/27 00:55:58;;;;;;;2.85;2.47;;;;;;;17.25;70.46;101361.78;5034904;28;20112;-81
2022/04/27 00:58:25;;;;;;;3.28;2.67;;;;;;;17.26;70.53;101360.94;5052648;28;20055;-80
2022/04/27 01:00:52;;;;;;;2.85;2.58;;;;;;;17.20;70.47;101351.06;5052456;28;20109;-80
2022/04/27 01:03:19;;;;;;;3.03;2.47;;;;;;;17.23;70.44;101358.16;5050822;28;20120;-81
2022/04/27 01:05:47;;;;;;;2.65;2.40;;;;;;;17.24;70.36;101371.44;5071835;28;20484;-81
2022/04/27 01:08:14;;;;;;;2.60;2.40;;;;;;;17.15;70.16;101350.00;5031446;28;20115;-81
2022/04/27 01:10:42;;;;;;;3.15;2.45;;;;;;;17.13;70.29;101351.69;5034449;28;20053;-78
2022/04/27 01:13:08;;;;;;;2.75;2.55;;;;;;;17.24;70.31;101367.91;5034753;28;20028;-80
2022/04/27 01:15:35;;;;;;;3.78;2.45;;;;;;;17.25;70.18;101372.31;5034298;28;20025;-80
2022/04/27 01:18:01;;;;;;;3.15;2.60;;;;;;;17.24;70.29;101368.78;5052403;28;20155;-80
2022/04/27 01:20:32;;;;;;;3.15;2.40;;;;;;;17.24;70.54;101370.53;5034437;28;20035;-80
2022/04/27 01:22:58;;;;;;;2.88;2.50;;;;;;;17.19;70.49;101356.28;5034476;28;20497;-79
2022/04/27 01:25:23;;;;;;;3.58;2.30;;;;;;;17.25;70.47;101367.03;5034219;28;20057;-80
2022/04/27 01:27:49;;;;;;;2.60;2.40;;;;;;;17.22;70.37;101362.56;5051894;28;20052;-80
2022/04/27 01:30:14;;;;;;;3.40;2.28;;;;;;;17.24;70.45;101360.88;5051466;28;20053;-80
2022/04/27 01:32:40;;;;;;;2.80;2.20;;;;;;;17.21;70.52;101354.63;5052054;28;20082;-81
2022/04/27 01:35:06;;;;;;;2.90;2.58;;;;;;;17.22;70.65;101357.28;5051921;28;20029;-79
2022/04/27 01:40:15;;;;;;;2.90;2.35;;;;;;;17.24;70.44;101346.78;5052048;28;20111;-80
2022/04/27 01:42:41;;;;;;;3.05;2.50;;;;;;;17.14;70.42;101328.81;5051787;28;20444;-80
2022/04/27 01:45:07;;;;;;;3.15;2.45;;;;;;;17.23;70.51;101343.25;5051724;28;20033;-79
2022/04/27 01:47:33;;;;;;;3.10;2.42;;;;;;;17.20;70.60;101340.50;5051954;28;20104;-80
2022/04/27 01:49:58;;;;;;;2.72;2.45;;;;;;;17.19;70.41;101336.06;5033779;28;20421;-80
2022/04/27 01:55:08;;;;;;;2.53;2.15;;;;;;;17.16;70.38;101341.22;5051507;28;20602;-80
2022/04/27 01:57:34;;;;;;;4.13;2.45;;;;;;;17.12;70.67;101330.50;5033770;28;20020;-79
2022/04/27 01:59:59;;;;;;;2.65;2.45;;;;;;;17.22;70.58;101357.28;5051611;28;20527;-80
2022/04/27 02:02:25;;;;;;;4.13;2.30;;;;;;;17.13;70.38;101345.50;5051606;28;20024;-80
2022/04/27 02:04:51;;;;;;;2.20;2.10;;;;;;;17.20;70.53;101361.59;5051317;28;20039;-79
2022/04/27 02:07:18;;;;;;;3.33;2.53;;;;;;;17.20;70.42;101366.00;5051240;28;20032;-79
2022/04/27 02:09:43;;;;;;;2.50;2.30;;;;;;;17.20;70.61;101368.63;5069956;28;20052;-79
2022/04/27 02:12:09;;;;;;;2.72;2.53;;;;;;;17.15;70.44;101362.31;5076598;28;20033;-80
2022/04/27 02:14:35;;;;;;;3.28;2.70;;;;;;;17.20;70.49;101372.16;5068684;28;20037;-80
2022/04/27 02:17:01;;;;;;;3.75;2.88;;;;;;;17.19;70.50;101375.66;5053435;28;20029;-80
2022/04/27 02:19:26;;;;;;;3.03;2.72;;;;;;;17.16;70.40;101378.16;5051169;28;20044;-80
2022/04/27 02:21:53;;;;;;;3.05;2.67;;;;;;;17.16;70.45;101380.81;5050720;28;20032;-80
2022/04/27 02:24:18;;;;;;;3.90;2.30;;;;;;;17.11;70.58;101378.88;5033136;28;20021;-80
2022/04/27 02:26:44;;;;;;;3.17;2.70;;;;;;;17.12;70.31;101372.72;5050501;28;20040;-80
2022/04/27 02:29:10;;;;;;;3.03;2.72;;;;;;;17.16;70.49;101388.72;5060678;28;20112;-79
2022/04/27 02:31:35;;;;;;;2.95;2.63;;;;;;;17.17;70.21;101389.66;5038175;28;20639;-80
2022/04/27 02:34:01;;;;;;;3.90;2.92;;;;;;;17.16;70.23;101386.09;5050519;28;20029;-79
2022/04/27 02:36:26;;;;;;;3.33;2.50;;;;;;;17.13;70.18;101380.72;5050941;28;20023;-79
2022/04/27 02:38:52;;;;;;;2.80;2.60;;;;;;;17.16;70.16;101383.44;5051427;28;20112;-80
2022/04/27 02:41:18;;;;;;;2.88;2.55;;;;;;;17.16;70.19;101390.47;5074519;28;20477;-80
2022/04/27 02:43:44;;;;;;;3.28;2.70;;;;;;;17.15;70.14;101393.97;5068119;28;20398;-81
2022/04/27 02:46:10;;;;;;;3.20;2.90;;;;;;;17.15;70.18;101391.34;5055157;28;20047;-80
2022/04/27 02:48:35;;;;;;;3.75;2.83;;;;;;;17.08;70.29;101388.47;5055201;28;20021;-80
2022/04/27 02:53:47;;;;;;;3.42;2.83;;;;;;;17.09;70.31;101378.78;5054593;28;20056;-80
2022/04/27 02:56:12;;;;;;;3.28;2.97;;;;;;;17.07;70.35;101380.47;5054579;28;20037;-80
2022/04/27 02:58:38;;;;;;;2.83;2.53;;;;;;;17.13;70.34;101388.63;5054214;28;20098;-79
2022/04/27 03:01:03;;;;;;;2.65;2.45;;;;;;;17.08;70.42;101390.19;5054362;28;20029;-79
2022/04/27 03:03:29;;;;;;;2.85;2.30;;;;;;;17.09;70.31;101392.00;5054514;28;20108;-80
2022/04/27 03:05:55;;;;;;;2.78;2.47;;;;;;;17.02;70.49;101382.06;5054454;28;20044;-80
2022/04/27 03:08:20;;;;;;;4.00;3.22;;;;;;;17.11;70.45;101406.16;5053744;28;20025;-79
2022/04/27 03:10:47;;;;;;;5.32;3.20;;;;;;;17.07;70.54;101386.66;5054375;28;20044;-79
2022/04/27 03:13:12;;;;;;;3.35;2.75;;;;;;;17.11;70.38;101387.66;5040460;28;20473;-79
2022/04/27 03:15:38;;;;;;;3.20;2.90;;;;;;;17.09;70.44;101387.59;5058946;28;20123;-79
2022/04/27 03:18:22;;;;;;;3.67;2.70;;;;;;;17.06;70.38;101382.22;5065067;28;20081;-79
2022/04/27 03:20:49;;;;;;;2.80;2.60;;;;;;;17.09;70.37;101395.53;5038523;28;20456;-79
2022/04/27 03:23:16;;;;;;;3.00;2.70;;;;;;;17.11;70.55;101389.41;5054051;28;20032;-79
2022/04/27 03:25:42;;;;;;;2.75;2.40;;;;;;;17.07;70.53;101388.41;5054629;28;20112;-79
2022/04/27 03:28:08;;;;;;;3.28;2.92;;;;;;;17.09;70.31;101392.88;5054517;28;20056;-79
2022/04/27 03:30:33;;;;;;;3.20;2.60;;;;;;;17.10;70.46;101399.06;5054457;28;20029;-79
2022/04/27 03:33:00;;;;;;;3.47;2.83;;;;;;;17.11;70.55;101397.34;5054365;28;20516;-78
2022/04/27 03:35:26;;;;;;;3.17;2.88;;;;;;;17.11;70.40;101405.25;5054284;28;20057;-79
2022/04/27 03:37:52;;;;;;;3.78;2.55;;;;;;;17.08;70.30;101403.38;5054139;28;20474;-79
2022/04/27 03:40:21;;;;;;;3.58;3.13;;;;;;;17.11;70.42;101402.63;5054299;28;20027;-79
2022/04/27 03:42:48;;;;;;;3.05;2.70;;;;;;;17.06;70.39;101398.06;5053462;28;20033;-78
2022/04/27 03:45:13;;;;;;;;;;;;;;;17.13;70.30;101403.56;5053745;28;20409;-79
2022/04/27 03:47:39;;;;;;;4.22;3.00;;;;;;;17.10;70.39;101409.59;5053422;28;19916;-79
2022/04/27 03:50:05;;;;;;;3.30;3.00;;;;;;;17.08;70.56;101408.66;5053328;28;20025;-80
2022/04/27 03:52:32;;;;;;;3.05;2.70;;;;;;;17.06;70.53;101411.25;5052028;28;20033;-80
2022/04/27 03:55:01;;;;;;;3.85;2.70;;;;;;;17.09;70.44;101419.28;5052967;28;20048;-80
2022/04/27 03:57:29;;;;;;;4.03;3.03;;;;;;;17.03;70.51;101421.69;5053246;28;20036;-80
2022/04/27 03:59:55;;;;;;;2.85;2.60;;;;;;;17.03;70.84;101419.03;5053133;28;20029;-80
2022/04/27 04:02:21;;;;;;;2.70;2.35;;;;;;;17.08;70.70;101430.69;5053053;28;20113;-80
2022/04/27 04:04:47;;;;;;;3.00;2.60;;;;;;;17.09;70.62;101428.94;5053097;28;20049;-79
2022/04/27 04:07:12;;;;;;;;;;;;;;;17.05;71.45;101434.94;5053370;28;20029;-80
2022/04/27 04:09:39;;;;;;;2.95;2.42;;;;;;;17.00;71.16;101437.41;5052984;28;20013;-81
2022/04/27 04:12:06;;;;;;;3.25;2.85;;;;;;;16.85;71.19;101423.63;5035185;28;20044;-81
2022/04/27 04:14:32;;;;;;;2.90;2.60;;;;;;;16.93;71.31;101437.09;5034958;28;20035;-80
2022/04/27 04:16:57;;;;;;;;;;;;;;;17.06;70.97;101442.03;5035424;28;20112;-81
2022/04/27 04:19:23;;;;;;;2.97;2.67;;;;;;;17.02;70.92;101441.00;5052662;28;19955;-81
2022/04/27 04:21:48;;;;;;;2.85;2.53;;;;;;;17.02;70.82;101438.38;5035234;28;20083;-80
2022/04/27 04:24:14;;;;;;;3.13;2.80;;;;;;;16.97;70.71;101432.00;5052517;28;20033;-80
2022/04/27 04:29:24;;;;;;;2.70;2.50;;;;;;;17.02;70.66;101454.19;5037425;28;20718;-81
2022/04/27 04:31:50;;;;;;;2.78;2.53;;;;;;;17.05;70.60;101459.56;5052551;28;20025;-81
2022/04/27 04:34:15;;;;;;;2.45;2.25;;;;;;;17.05;70.68;101463.97;5052380;28;20071;-81
2022/04/27 04:36:41;;;;;;;2.83;2.60;;;;;;;17.03;70.70;101458.63;5038331;28;20025;-80
2022/04/27 04:39:06;;;;;;;3.40;2.55;;;;;;;16.95;71.54;101464.44;5032571;28;20036;-81
2022/04/27 04:41:32;;;;;;;2.85;2.47;;;;;;;16.96;71.37;101461.88;5032416;28;20103;-81
2022/04/27 04:43:57;;;;;;;2.72;2.40;;;;;;;16.85;71.92;101443.00;5032399;28;20021;-87
2022/04/27 04:46:23;;;;;;;7.85;2.50;;;;;;;17.02;72.81;101467.38;5032247;28;20026;-85
2022/04/27 04:48:49;;;;;;;4.60;2.70;;;;;;;16.97;72.73;101455.75;5032173;28;20036;-84
2022/04/27 04:51:15;;;;;;;3.15;2.50;;;;;;;16.68;72.41;101401.84;5030602;28;20513;-83
2022/04/27 04:53:40;;;;;;;3.15;2.67;;;;;;;16.99;72.03;101454.06;5014460;28;20149;-82
2022/04/27 04:56:06;;;;;;;3.83;2.35;;;;;;;16.93;72.02;101440.63;5030769;28;20044;-82
2022/04/27 04:58:31;;;;;;;2.70;2.10;;;;;;;16.81;71.84;101425.25;5033971;28;20040;-87
2022/04/27 05:00:57;;;;;;;3.67;2.40;;;;;;;16.81;71.77;101429.63;5025201;28;20037;-84
2022/04/27 05:03:25;;;;;;;3.58;2.40;;;;;;;17.06;71.98;101463.16;5028683;28;20029;-85
2022/04/27 05:05:55;;;;;;;5.22;2.50;;;;;;;16.99;71.84;101448.78;5058581;28;20028;-85
2022/04/27 05:08:22;;;;;;;4.63;2.55;;;;;;;17.02;71.85;101461.22;5039724;28;20083;-85
2022/04/27 05:10:47;;;;;;;4.20;2.20;;;;;;;16.96;71.77;101450.44;5053115;28;20433;-86
2022/04/27 05:13:13;;;;;;;4.75;2.67;;;;;;;17.08;71.91;101477.25;5018329;28;20147;-85
2022/04/27 05:15:39;;;;;;;2.67;2.38;;;;;;;16.83;71.87;101427.94;5029575;28;20087;-85
2022/04/27 05:18:05;;;;;;;2.35;2.13;;;;;;;16.94;71.81;101460.03;5034240;28;20025;-85
2022/04/27 05:20:30;;;;;;;2.88;2.20;;;;;;;16.97;71.79;101468.94;5012580;28;20056;-85
2022/04/27 05:22:56;;;;;;;3.78;2.25;;;;;;;16.75;71.70;101424.97;5031543;28;20130;-85
2022/04/27 05:25:22;;;;;;;3.28;2.10;;;;;;;17.01;71.81;101469.97;5043198;28;20141;-86
2022/04/27 05:27:47;;;;;;;2.65;2.25;;;;;;;16.74;71.81;101424.91;5031063;28;20033;-86
2022/04/27 05:32:58;;;;;;;2.95;2.10;;;;;;;17.12;71.70;101481.81;5033292;28;20415;-85
2022/04/27 05:35:23;;;;;;;;;;;;;;;17.16;71.55;101485.50;5051735;28;20040;-85
2022/04/27 05:37:49;;;;;;;3.47;2.22;;;;;;;17.04;71.84;101476.28;5033536;28;19913;-87
2022/04/27 05:40:14;;;;;;;4.43;2.20;;;;;;;17.02;71.95;101475.31;5034255;28;20029;-84
2022/04/27 05:42:40;;;;;;;3.00;2.67;;;;;;;17.06;72.24;101497.44;5042586;28;20021;-86
2022/04/27 05:45:09;;;;;;;4.22;2.47;;;;;;;17.07;72.24;101488.69;5034024;28;20036;-86
2022/04/27 05:47:35;;;;;;;3.45;2.40;;;;;;;17.01;72.21;101481.41;5034370;28;20029;-86
2022/04/27 05:50:01;;;;;;;2.65;2.13;;;;;;;17.06;72.18;101487.78;5051699;28;20021;-85
2022/04/27 05:52:27;;;;;;;3.97;2.70;;;;;;;16.98;72.05;101468.09;5032295;28;20037;-85
2022/04/27 05:54:52;;;;;;;2.38;1.98;;;;;;;17.08;72.08;101488.75;5050341;28;20428;-85
2022/04/27 05:57:19;;;;;;;4.53;2.40;;;;;;;17.15;72.14;101504.81;5033538;28;20493;-83
2022/04/27 05:59:45;;;;;;;2.55;2.35;;;;;;;17.12;72.21;101505.56;5033865;28;20040;-83
2022/04/27 06:02:11;;;;;;;4.40;2.60;;;;;;;17.15;72.29;101499.53;5049606;28;20033;-83
2022/04/27 06:04:37;;;;;;;2.53;2.20;;;;;;;17.17;72.21;101511.06;5013560;28;20029;-83
2022/04/27 06:07:04;;;;;;;2.95;2.45;;;;;;;17.01;72.23;101486.69;5013296;28;20030;-84
2022/04/27 06:09:29;;;;;;;1.88;1.75;;;;;;;17.06;72.49;101493.06;5013940;28;20541;-83
2022/04/27 06:11:55;;;;;;;3.75;2.50;;;;;;;16.92;72.55;101478.41;5031609;28;20160;-83
2022/04/27 06:14:21;;;;;;;3.15;2.38;;;;;;;17.19;72.23;101512.91;5031053;28;20403;-85
2022/04/27 06:16:46;;;;;;;6.18;2.65;;;;;;;16.90;73.62;101477.47;5030168;28;20030;-83
2022/04/27 06:19:13;;;;;;;4.97;2.83;;;;;;;17.05;72.46;101508.81;5031381;28;20057;-83
2022/04/27 06:21:38;;;;;;;5.55;2.80;;;;;;;17.08;72.50;101508.94;5031431;28;20029;-84
2022/04/27 06:24:05;;;;;;;5.78;2.83;;;;;;;16.76;73.44;101453.13;5031496;28;20029;-84
2022/04/27 06:26:33;;;;;;;6.60;2.90;;;;;;;17.18;73.62;101533.97;5013522;28;20457;-84
2022/04/27 06:29:02;;;;;;;3.20;2.75;;;;;;;17.18;73.56;101534.84;5031365;28;20057;-84
2022/04/27 06:31:29;;;;;;;5.60;3.20;;;;;;;17.13;73.92;101533.78;5031131;28;20037;-83
2022/04/27 06:33:55;;;;;;;5.72;2.80;;;;;;;17.14;74.28;101526.75;5030037;28;20029;-83
2022/04/27 06:36:20;;;;;;;5.82;3.13;;;;;;;17.02;74.70;101514.00;5031636;28;20036;-84
2022/04/27 06:38:46;;;;;;;14.50;3.15;;;;;;;17.03;74.71;101518.41;5031240;28;20037;-83
2022/04/27 06:41:12;;;;;;;6.65;3.33;;;;;;;17.04;74.78;101505.28;5031215;28;20030;-84
2022/04/27 06:43:37;;;;;;;6.93;3.40;;;;;;;17.06;74.30;101532.66;5029758;28;20049;-84
2022/04/27 06:46:03;;;;;;;7.93;3.00;;;;;;;17.02;74.09;101529.84;5031342;28;20729;-84
2022/04/27 06:48:30;;;;;;;6.13;3.10;;;;;;;17.20;73.60;101551.66;5031118;28;20033;-84
2022/04/27 06:50:55;;;;;;;4.35;3.13;;;;;;;17.15;73.23;101536.50;5034019;28;20028;-84
2022/04/27 06:53:21;;;;;;;5.15;3.15;;;;;;;17.16;73.06;101539.16;5050915;28;20421;-83
2022/04/27 06:55:48;;;;;;;6.10;3.28;;;;;;;17.13;73.11;101532.91;5050920;28;20082;-84
2022/04/27 06:58:14;;;;;;;5.28;3.30;;;;;;;17.27;73.31;101561.63;5051074;28;20029;-84
2022/04/27 07:00:39;;;;;;;7.63;3.17;;;;;;;17.17;73.26;101559.47;5050819;28;20055;-84
2022/04/27 07:03:05;;;;;;;8.65;3.05;;;;;;;17.16;73.90;101559.38;5041828;28;20030;-84
2022/04/27 07:05:31;;;;;;;6.03;3.55;;;;;;;17.01;73.57;101546.47;5012837;28;20494;-84
2022/04/27 07:07:59;;;;;;;3.55;3.10;;;;;;;17.08;73.88;101572.28;5013349;28;20108;-84
2022/04/27 07:10:24;;;;;;;5.95;3.45;;;;;;;17.08;74.13;101574.91;5032170;28;20031;-84
2022/04/27 07:12:50;;;;;;;4.53;3.17;;;;;;;17.04;73.63;101557.19;5033047;28;20112;-84
2022/04/27 07:15:16;;;;;;;4.38;2.92;;;;;;;17.01;73.79;101552.66;5050706;28;20033;-84
2022/04/27 07:17:42;;;;;;;5.05;3.53;;;;;;;17.17;73.48;101580.56;5050838;28;20025;-84
2022/04/27 07:20:08;;;;;;;6.18;3.28;;;;;;;17.07;73.60;101570.47;5028605;28;20037;-84
2022/04/27 07:22:34;;;;;;;;;;;;;;;17.27;72.92;101580.09;5031004;28;20030;-84
2022/04/27 07:25:00;;;;;;;3.78;2.90;;;;;;;17.17;73.42;101571.75;5029721;28;20559;-84
2022/04/27 07:27:27;;;;;;;4.93;3.65;;;;;;;17.19;73.54;101581.53;5032657;28;20036;-83
2022/04/27 07:29:53;;;;;;;3.60;3.25;;;;;;;17.22;73.30;101578.13;5032848;28;20108;-82
2022/04/27 07:32:19;;;;;;;6.53;3.42;;;;;;;17.24;73.12;101587.88;5030622;28;20033;-82
2022/04/27 07:34:44;;;;;;;5.68;3.30;;;;;;;17.23;73.20;101587.81;5052590;28;20028;-82
2022/04/27 07:37:10;;;;;;;5.88;3.28;;;;;;;17.03;73.24;101553.63;5035213;28;20486;-81
2022/04/27 07:39:36;;;;;;;5.32;2.83;;;;;;;17.15;72.95;101576.97;5035843;28;20029;-82
2022/04/27 07:42:03;;;;;;;7.07;3.30;;;;;;;17.25;73.18;101594.97;5053627;28;20032;-83
2022/04/27 07:44:29;;;;;;;5.82;3.50;;;;;;;17.27;72.98;101603.88;5035773;28;20029;-82
2022/04/27 07:46:54;;;;;;;4.72;3.00;;;;;;;17.13;73.17;101575.13;5052991;28;20040;-82
2022/04/27 07:49:20;;;;;;;4.35;3.08;;;;;;;17.31;72.90;101610.16;5052007;28;20025;-82
2022/04/27 07:51:47;;;;;;;6.28;3.60;;;;;;;17.26;73.07;101604.69;5033998;28;20572;-83
2022/04/27 07:54:12;;;;;;;4.97;3.45;;;;;;;17.22;72.87;101594.84;5051931;28;20398;-82
2022/04/27 07:56:38;;;;;;;6.80;3.15;;;;;;;17.20;72.90;101588.59;5034080;28;20043;-82
2022/04/27 07:59:04;;;;;;;4.75;3.30;;;;;;;17.18;72.87;101584.09;5033843;28;20037;-82
2022/04/27 08:01:30;;;;;;;7.32;3.33;;;;;;;17.29;72.92;101611.81;5052100;28;20032;-82
2022/04/27 08:03:56;;;;;;;;;;;;;;;17.35;72.37;101612.06;5035849;28;20116;-83
2022/04/27 08:06:22;;;;;;;6.28;3.45;;;;;;;17.30;72.66;101609.25;5035341;28;20062;-82
2022/04/27 08:08:47;;;;;;;3.78;3.20;;;;;;;17.22;72.77;101601.88;5035613;28;20028;-83
2022/04/27 08:11:13;;;;;;;6.53;3.33;;;;;;;17.30;72.74;101609.25;5035923;28;20040;-83
2022/04/27 08:13:39;;;;;;;3.75;3.40;;;;;;;17.27;72.76;101602.94;5035676;28;20104;-82
2022/04/27 08:16:10;;;;;;;5.57;3.63;;;;;;;17.32;72.71;101616.34;5035137;28;20033;-82
2022/04/27 08:18:36;;;;;;;4.95;3.28;;;;;;;17.24;72.88;101621.31;5052581;28;20029;-83
2022/04/27 08:21:21;;;;;;;4.43;3.50;;;;;;;17.26;72.68;101611.72;5029128;28;20026;-83
2022/04/27 08:23:47;;;;;;;4.80;3.28;;;;;;;17.34;72.56;101619.97;5019262;28;20056;-84
2022/04/27 08:26:14;;;;;;;6.30;3.50;;;;;;;17.31;72.48;101628.63;5015682;28;20505;-83
2022/04/27 08:28:40;;;;;;;4.30;3.50;;;;;;;17.36;72.53;101626.19;5033393;28;20461;-84
2022/04/27 08:31:07;;;;;;;4.07;3.28;;;;;;;17.32;72.61;101622.53;4999216;28;20453;-83
2022/04/27 08:33:34;;;;;;;4.15;3.38;;;;;;;17.35;72.65;101620.00;5015650;28;20026;-82
2022/04/27 08:35:59;;;;;;;;;;;;;;;17.40;72.40;101631.66;5015984;28;20025;-83
2022/04/27 08:38:26;;;;;;;5.05;3.50;;;;;;;17.37;72.76;101633.25;5038285;28;20462;-83
2022/04/27 08:40:52;;;;;;;4.30;3.13;;;;;;;17.34;72.51;101633.16;5023530;28;20029;-83
2022/04/27 08:43:18;;;;;;;3.70;3.38;;;;;;;17.39;72.64;101637.75;5015041;28;20037;-83
2022/04/27 08:45:44;;;;;;;8.20;3.65;;;;;;;17.34;72.44;101620.84;5015384;28;20120;-83
2022/04/27 08:48:12;;;;;;;4.07;3.20;;;;;;;17.39;72.53;101634.22;5014769;28;20087;-82
2022/04/27 08:50:39;;;;;;;6.72;3.20;;;;;;;17.40;72.71;101628.09;5033696;28;20033;-84
2022/04/27 08:53:05;;;;;;;7.75;3.42;;;;;;;17.45;68.64;101632.72;5034638;28;20424;-83
2022/04/27 08:55:31;;;;;;;;;;;;;;;17.55;67.50;101631.38;5034800;28;20029;-84
2022/04/27 08:58:11;;;;;;;6.68;4.10;;;;;;;17.49;68.39;101632.00;5050025;28;19977;-83
2022/04/27 09:00:38;;;;;;;6.45;4.05;;;;;;;17.44;69.98;101632.66;5052472;28;20025;-83
2022/04/27 09:03:25;;;;;;;7.60;4.43;;;;;;;17.45;70.19;101631.84;5052548;28;20577;-83
2022/04/27 09:05:59;;;;;;;7.20;4.40;;;;;;;17.45;70.70;101632.72;5052494;28;20036;-83
2022/04/27 09:08:46;;;;;;;7.18;4.35;;;;;;;17.46;70.88;101633.63;5033587;28;20033;-83
2022/04/27 09:11:14;;;;;;;7.93;4.30;;;;;;;17.54;70.82;101639.22;5050033;28;20031;-83
2022/04/27 09:13:40;;;;;;;5.47;4.22;;;;;;;17.43;71.28;101630.88;5050932;28;20565;-83
2022/04/27 09:16:07;;;;;;;6.47;4.30;;;;;;;17.36;71.18;101613.91;5033152;28;20025;-83
2022/04/27 09:21:53;;;;;;;7.65;4.13;;;;;;;17.48;71.73;101638.16;5051087;28;20448;-83
2022/04/27 09:24:19;;;;;;;7.15;4.07;;;;;;;17.41;71.74;101624.63;5051839;28;20024;-83
2022/04/27 09:26:44;;;;;;;;;;;;;;;17.51;71.66;101637.38;5052540;28;20029;-83
2022/04/27 09:29:23;;;;;;;5.03;3.92;;;;;;;17.48;71.62;101654.00;5052036;28;19963;-83
2022/04/27 09:31:57;;;;;;;5.93;4.40;;;;;;;17.40;72.04;101625.44;5034275;28;20108;-83
2022/04/27 09:34:31;;;;;;;6.57;4.13;;;;;;;17.45;72.10;101638.00;5034436;28;20033;-83
2022/04/27 09:37:02;;;;;;;6.40;4.00;;;;;;;17.68;71.52;101648.59;5047248;28;20037;-82
2022/04/27 09:39:28;;;;;;;5.85;4.10;;;;;;;17.67;71.54;101646.78;5023177;28;20029;-82
2022/04/27 09:42:05;;;;;;;8.27;4.20;;;;;;;17.71;67.65;101653.97;5031484;28;20056;-83
2022/04/27 09:44:32;;;;;;;7.60;4.18;;;;;;;17.61;65.48;101636.88;5014134;28;20532;-82
2022/04/27 09:46:59;;;;;;;8.68;4.55;;;;;;;17.75;64.95;101647.97;5031782;28;20034;-83
2022/04/27 09:49:24;;;;;;;;;;;;;;;17.79;64.82;101643.72;5031541;28;20486;-82
2022/04/27 09:51:52;;;;;;;6.28;4.15;;;;;;;17.67;63.84;101645.06;5030221;28;19917;-83
2022/04/27 09:54:28;;;;;;;6.97;4.30;;;;;;;17.56;69.42;101642.81;5009943;28;20046;-82
2022/04/27 09:56:59;;;;;;;7.43;4.75;;;;;;;17.50;70.46;101657.59;5014312;28;20033;-82
2022/04/27 09:59:36;;;;;;;6.00;4.15;;;;;;;17.41;70.72;101633.44;5012133;28;20036;-82
2022/04/27 10:02:07;;;;;;;7.25;4.38;;;;;;;17.46;70.73;101639.81;5010898;28;20108;-83
2022/04/27 10:04:34;;;;;;;6.72;4.32;;;;;;;17.53;70.86;101658.56;5013550;28;20136;-82
2022/04/27 10:07:01;;;;;;;;;;;;;;;17.54;70.72;101655.06;5012851;28;20034;-82
2022/04/27 10:09:30;;;;;;;6.00;4.63;;;;;;;17.54;70.76;101663.00;5020958;28;20000;-82
2022/04/27 10:11:58;;;;;;;5.90;4.40;;;;;;;17.57;70.62;101657.81;5021911;28;20026;-82
2022/04/27 10:14:27;;;;;;;8.13;5.10;;;;;;;17.58;70.61;101655.25;5000675;28;20525;-81
2022/04/27 10:16:54;;;;;;;8.07;5.13;;;;;;;17.48;70.36;101637.22;5024326;28;20049;-82
2022/04/27 10:19:20;;;;;;;6.10;4.72;;;;;;;17.34;70.62;101620.84;5012297;28;20384;-83
2022/04/27 10:24:33;;;;;;;6.65;4.90;;;;;;;17.54;70.92;101655.06;5010590;28;20340;-83
2022/04/27 10:27:18;;;;;;;6.60;4.93;;;;;;;17.56;70.74;101653.38;5011512;28;20041;-81
2022/04/27 10:29:51;;;;;;;7.28;5.00;;;;;;;17.54;70.95;101648.03;5011638;28;20029;-81
2022/04/27 10:32:39;;;;;;;7.78;5.00;;;;;;;17.52;70.91;101651.47;5011642;28;20026;-81
2022/04/27 10:35:19;;;;;;;7.32;5.00;;;;;;;17.53;71.20;101653.28;5019223;28;20029;-81
2022/04/27 10:37:59;;;;;;;6.90;5.20;;;;;;;17.49;70.76;101637.28;5010985;28;20393;-81
2022/04/27 10:40:37;;;;;;;8.43;5.60;;;;;;;17.52;71.10;101640.91;5009652;28;20048;-81
2022/04/27 10:43:15;;;;;;;6.05;4.80;;;;;;;17.54;70.96;101644.50;5013460;28;20025;-81
2022/04/27 10:45:45;;;;;;;7.25;4.80;;;;;;;17.46;70.95;101631.91;5026436;28;20029;-81
2022/04/27 10:48:27;;;;;;;6.30;5.03;;;;;;;17.62;70.43;101645.72;5031267;28;20379;-81
2022/04/27 10:51:02;;;;;;;5.90;4.78;;;;;;;17.65;70.70;101645.81;5019341;28;20040;-80
2022/04/27 10:53:29;;;;;;;8.35;4.75;;;;;;;17.67;70.72;101645.06;5016380;28;20045;-81
2022/04/27 10:55:59;;;;;;;6.60;4.78;;;;;;;17.67;70.77;101647.69;5029878;28;20064;-80
2022/04/27 10:58:30;;;;;;;8.25;5.00;;;;;;;17.68;70.75;101643.31;5031247;28;20029;-80
2022/04/27 11:00:59;;;;;;;9.57;4.95;;;;;;;17.69;70.68;101647.75;5032102;28;20103;-80
2022/04/27 11:03:26;;;;;;;6.65;4.53;;;;;;;17.69;70.85;101639.81;5034808;28;20034;-81
2022/04/27 11:05:52;;;;;;;6.85;4.60;;;;;;;17.68;70.65;101651.22;5035426;28;20558;-81
2022/04/27 11:08:23;;;;;;;;;;;;;;;17.72;70.56;101644.34;5035408;28;20032;-81
2022/04/27 11:10:51;;;;;;;6.85;4.30;;;;;;;17.69;70.71;101640.75;5034917;28;19920;-81
2022/04/27 11:13:17;;;;;;;6.40;4.25;;;;;;;17.69;70.67;101647.75;5017303;28;20029;-81
2022/04/27 11:15:44;;;;;;;5.07;4.40;;;;;;;17.71;70.88;101640.78;5017065;28;20083;-81
2022/04/27 11:18:10;;;;;;;6.47;4.55;;;;;;;17.69;70.81;101635.44;5034842;28;20032;-81
2022/04/27 11:20:39;;;;;;;6.18;4.22;;;;;;;17.75;70.58;101636.50;5033748;28;20028;-80
2022/04/27 11:23:07;;;;;;;6.47;4.20;;;;;;;17.73;70.77;101639.09;5034463;28;20037;-81
2022/04/27 11:25:39;;;;;;;5.35;4.18;;;;;;;17.74;70.92;101638.25;5034485;28;20034;-81
2022/04/27 11:28:10;;;;;;;5.28;4.15;;;;;;;17.75;70.96;101636.50;5034192;28;20025;-81
2022/04/27 11:30:36;;;;;;;4.57;4.15;;;;;;;17.73;71.36;101632.91;5034421;28;20034;-81
2022/04/27 11:33:02;;;;;;;5.65;4.35;;;;;;;17.66;71.43;101629.13;5034285;28;20029;-81
2022/04/27 11:35:38;;;;;;;7.68;4.20;;;;;;;17.75;71.49;101632.13;5049223;28;20029;-80
2022/04/27 11:38:04;;;;;;;5.40;4.30;;;;;;;17.80;71.19;101633.22;5053405;28;20032;-81
2022/04/27 11:40:36;;;;;;;5.25;4.10;;;;;;;17.79;71.47;101625.22;5036851;28;20527;-81
2022/04/27 11:43:04;;;;;;;7.60;4.45;;;;;;;17.81;71.63;101629.72;5052158;28;20457;-80
2022/04/27 11:45:30;;;;;;;5.55;3.97;;;;;;;17.79;71.18;101618.19;5053666;28;20028;-81
2022/04/27 11:48:05;;;;;;;5.72;3.90;;;;;;;17.84;71.25;101619.31;5035138;28;20120;-80
2022/04/27 11:50:35;;;;;;;6.97;4.07;;;;;;;17.83;71.30;101622.78;5050929;28;20029;-81